Time;durP1;ratioP1;P1;durP2;ratioP2;P2;SDS_P1;SDS_P2;PMS_P1;PMS_P2;Temp;Humidity;BMP_temperature;BMP_pressure;BME280_temperature;BME280_humidity;BME280_pressure;Samples;Min_cycle;Max_cycle;Signal;HPM_P1;HPM_P2
2022/09/26 00:00:42;;;;;;;10.13;4.15;;;12.70;99.90;;;;;;4203892;28;20198;-91
2022/09/26 00:02:43;;;;;;;10.25;3.58;;;12.70;99.90;;;;;;4201970;28;20178;-93
2022/09/26 00:04:44;;;;;;;12.20;4.00;;;12.80;99.90;;;;;;4203105;28;20312;-96
2022/09/26 00:06:45;;;;;;;9.32;4.13;;;12.70;99.90;;;;;;4203819;28;20179;-92
2022/09/26 00:08:47;;;;;;;11.60;4.03;;;12.70;99.90;;;;;;4202050;28;20609;-92
2022/09/26 00:10:56;;;;;;;10.85;3.65;;;12.70;99.90;;;;;;4201560;28;20177;-93
2022/09/26 00:12:57;;;;;;;14.55;3.80;;;12.60;99.90;;;;;;4204491;28;20266;-92
2022/09/26 00:14:57;;;;;;;7.28;3.17;;;12.70;99.90;;;;;;4204288;28;20875;-95
2022/09/26 00:16:58;;;;;;;8.18;3.55;;;12.70;99.90;;;;;;4187580;28;20203;-91
2022/09/26 00:19:00;;;;;;;10.75;3.78;;;12.70;99.90;;;;;;4186417;28;20282;-91
2022/09/26 00:21:13;;;;;;;10.02;3.58;;;12.70;99.90;;;;;;4188322;28;20278;-91
2022/09/26 00:23:14;;;;;;;7.82;3.45;;;12.70;99.90;;;;;;4184873;28;20175;-92
2022/09/26 00:25:15;;;;;;;9.30;3.40;;;12.60;99.90;;;;;;4202547;28;20171;-92
2022/09/26 00:27:15;;;;;;;6.63;3.50;;;12.70;99.90;;;;;;4202918;28;20262;-92
2022/09/26 00:29:16;;;;;;;7.35;3.55;;;12.60;99.90;;;;;;4206115;28;20215;-92
2022/09/26 00:31:21;;;;;;;9.35;3.55;;;12.60;99.90;;;;;;4202798;28;20241;-92
2022/09/26 00:33:23;;;;;;;9.10;2.95;;;12.70;99.90;;;;;;4203187;28;20180;-91
2022/09/26 00:35:23;;;;;;;13.50;4.00;;;12.60;99.90;;;;;;4204228;28;20166;-92
2022/09/26 00:37:24;;;;;;;14.88;3.80;;;12.60;99.90;;;;;;4203322;28;20182;-92
2022/09/26 00:39:25;;;;;;;8.30;3.38;;;12.60;99.90;;;;;;4202513;28;20202;-93
2022/09/26 00:41:27;;;;;;;14.98;3.70;;;12.60;99.90;;;;;;4204168;28;20215;-91
2022/09/26 00:43:48;;;;;;;13.50;3.92;;;12.70;99.90;;;;;;4202846;28;20163;-91
2022/09/26 00:45:50;;;;;;;9.45;3.78;;;12.70;99.90;;;;;;4201681;28;20266;-92
2022/09/26 00:47:59;;;;;;;12.98;3.75;;;12.70;99.90;;;;;;4201119;28;20171;-92
2022/09/26 00:50:29;;;;;;;13.57;3.78;;;12.60;99.90;;;;;;4202034;28;20188;-91
2022/09/26 00:52:36;;;;;;;9.45;3.03;;;12.70;99.90;;;;;;4204452;28;20236;-92
2022/09/26 00:54:40;;;;;;;9.70;3.42;;;12.60;99.90;;;;;;4204225;28;20178;-92
2022/09/26 00:56:45;;;;;;;10.65;3.50;;;12.60;99.90;;;;;;4203028;28;20234;-92
2022/09/26 00:59:16;;;;;;;9.00;3.72;;;12.60;99.90;;;;;;4202118;28;20277;-92
2022/09/26 01:01:18;;;;;;;8.40;3.85;;;12.60;99.90;;;;;;4201385;28;20218;-92
2022/09/26 01:03:20;;;;;;;12.68;3.22;;;12.50;99.90;;;;;;4201063;28;20175;-96
2022/09/26 01:05:22;;;;;;;11.88;3.90;;;12.50;99.90;;;;;;4201338;28;20236;-96
2022/09/26 01:07:26;;;;;;;11.88;3.75;;;12.50;99.90;;;;;;4204966;28;20159;-95
2022/09/26 01:09:28;;;;;;;11.35;3.58;;;12.50;99.90;;;;;;4201950;28;20183;-91
2022/09/26 01:11:30;;;;;;;11.88;3.20;;;12.40;99.90;;;;;;4200537;28;20178;-96
2022/09/26 01:13:33;;;;;;;12.23;3.63;;;12.40;99.90;;;;;;4185914;28;20171;-96
2022/09/26 01:15:35;;;;;;;12.00;3.20;;;12.40;99.90;;;;;;4183338;28;20175;-95
2022/09/26 01:17:38;;;;;;;11.93;3.67;;;12.40;99.90;;;;;;4184305;28;20211;-91
2022/09/26 01:19:54;;;;;;;12.32;3.35;;;12.50;99.90;;;;;;4184766;28;20195;-91
2022/09/26 01:22:20;;;;;;;11.13;3.67;;;12.60;99.90;;;;;;4217035;28;20634;-91
2022/09/26 01:24:26;;;;;;;13.82;3.55;;;12.60;99.90;;;;;;4216715;28;20862;-92
2022/09/26 01:26:50;;;;;;;8.65;3.40;;;12.50;99.90;;;;;;4202089;28;20239;-91
2022/09/26 01:28:59;;;;;;;16.05;3.60;;;12.50;99.90;;;;;;4201351;28;20193;-92
2022/09/26 01:31:36;;;;;;;11.27;3.25;;;12.60;99.90;;;;;;4200802;28;20200;-92
2022/09/26 01:33:57;;;;;;;5.68;2.78;;;12.60;99.90;;;;;;4169584;28;20187;-91
2022/09/26 01:36:47;;;;;;;9.85;3.15;;;12.50;99.90;;;;;;4199054;28;20197;-91
2022/09/26 01:39:00;;;;;;;9.10;2.67;;;12.40;99.90;;;;;;4202687;28;20197;-91
2022/09/26 01:41:19;;;;;;;12.82;3.05;;;12.50;99.90;;;;;;4201430;28;20210;-91
2022/09/26 01:43:45;;;;;;;13.40;2.53;;;12.50;99.90;;;;;;4199722;28;20205;-91
2022/09/26 01:45:59;;;;;;;7.70;2.70;;;12.40;99.90;;;;;;4200859;28;20174;-91
2022/09/26 01:48:18;;;;;;;15.30;2.50;;;12.50;99.90;;;;;;4202866;28;20655;-92
2022/09/26 01:50:35;;;;;;;10.02;2.20;;;12.70;99.90;;;;;;4202170;28;20244;-92
2022/09/26 01:52:50;;;;;;;7.35;2.38;;;12.70;99.90;;;;;;4203595;28;20287;-91
2022/09/26 01:55:11;;;;;;;11.27;2.65;;;12.70;99.90;;;;;;4205219;28;20254;-92
2022/09/26 01:57:19;;;;;;;9.43;2.38;;;12.60;99.90;;;;;;4203727;28;20195;-91
2022/09/26 01:59:26;;;;;;;9.77;2.30;;;12.50;99.90;;;;;;4201399;28;20190;-91
2022/09/26 02:01:31;;;;;;;11.27;2.33;;;12.40;99.90;;;;;;4200393;28;20214;-91
2022/09/26 02:03:36;;;;;;;10.07;2.40;;;12.20;99.90;;;;;;4199580;28;20171;-91
2022/09/26 02:05:51;;;;;;;6.40;1.70;;;12.20;99.90;;;;;;4201833;28;20261;-90
2022/09/26 02:08:00;;;;;;;10.52;2.20;;;12.30;99.90;;;;;;4219909;28;20177;-91
2022/09/26 02:10:12;;;;;;;11.98;2.28;;;12.40;99.90;;;;;;4202860;28;20187;-92
2022/09/26 02:12:19;;;;;;;10.18;1.75;;;12.50;99.90;;;;;;4202059;28;20170;-91
2022/09/26 02:14:28;;;;;;;10.40;1.98;;;12.60;99.90;;;;;;4202247;28;20597;-91
2022/09/26 02:16:37;;;;;;;6.15;2.03;;;12.60;99.90;;;;;;4200846;28;20167;-91
2022/09/26 02:18:45;;;;;;;10.30;2.00;;;12.50;99.90;;;;;;4201565;28;20670;-92
2022/09/26 02:20:59;;;;;;;11.30;1.90;;;12.40;99.90;;;;;;4202395;28;20289;-92
2022/09/26 02:23:03;;;;;;;8.40;2.15;;;12.40;99.90;;;;;;4199317;28;20642;-91
2022/09/26 02:25:05;;;;;;;9.07;2.10;;;12.40;99.90;;;;;;4201507;28;20189;-90
2022/09/26 02:27:06;;;;;;;5.85;2.17;;;12.40;99.90;;;;;;4203724;28;20174;-91
2022/09/26 02:29:08;;;;;;;7.85;1.83;;;12.60;99.90;;;;;;4182956;28;20293;-95
2022/09/26 02:31:12;;;;;;;6.35;2.40;;;12.60;99.90;;;;;;4185149;28;20701;-92
2022/09/26 02:33:13;;;;;;;10.55;2.20;;;12.60;99.90;;;;;;4197775;28;20174;-92
2022/09/26 02:37:36;;;;;;;6.05;1.98;;;12.80;99.90;;;;;;4220883;28;20343;-92
2022/09/26 02:39:36;;;;;;;9.00;2.10;;;12.70;99.90;;;;;;4184697;28;20617;-96
2022/09/26 02:41:48;;;;;;;6.13;2.28;;;12.70;99.90;;;;;;4186073;28;20183;-92
2022/09/26 02:44:26;;;;;;;11.07;2.55;;;12.60;99.90;;;;;;4201411;28;20207;-90
2022/09/26 02:47:09;;;;;;;19.20;2.30;;;12.60;99.90;;;;;;4202203;28;20665;-91
2022/09/26 02:49:15;;;;;;;12.68;2.53;;;12.60;99.90;;;;;;4202224;28;20205;-91
2022/09/26 02:51:44;;;;;;;10.35;2.30;;;12.60;99.90;;;;;;4203712;28;20225;-92
2022/09/26 02:54:02;;;;;;;8.45;2.20;;;12.60;99.90;;;;;;4203419;28;20195;-92
2022/09/26 02:56:29;;;;;;;7.32;2.17;;;12.50;99.90;;;;;;4200573;28;20253;-91
2022/09/26 02:58:43;;;;;;;9.95;2.30;;;12.60;99.90;;;;;;4200444;28;20296;-90
2022/09/26 03:01:08;;;;;;;7.57;2.00;;;12.50;99.90;;;;;;4199855;28;20214;-91
2022/09/26 03:03:23;;;;;;;11.98;2.08;;;12.50;99.90;;;;;;4202868;28;20615;-92
2022/09/26 03:05:28;;;;;;;14.75;2.60;;;12.40;99.90;;;;;;4200000;28;20599;-93
2022/09/26 03:07:36;;;;;;;7.60;2.60;;;12.40;99.90;;;;;;4199432;28;20180;-88
2022/09/26 03:09:40;;;;;;;13.13;2.55;;;12.20;99.90;;;;;;4197584;28;20198;-95
2022/09/26 03:11:42;;;;;;;7.90;2.25;;;12.30;99.90;;;;;;4197769;28;20177;-88
2022/09/26 03:13:44;;;;;;;12.25;2.33;;;12.30;99.90;;;;;;4198008;28;20170;-88
2022/09/26 03:15:54;;;;;;;9.50;2.05;;;12.20;99.90;;;;;;4197707;28;20208;-89
2022/09/26 03:18:00;;;;;;;12.65;2.30;;;12.20;99.90;;;;;;4199731;28;20191;-87
2022/09/26 03:20:12;;;;;;;11.52;2.03;;;12.20;99.90;;;;;;4211246;28;20207;-87
2022/09/26 03:22:15;;;;;;;4.82;1.58;;;12.20;99.90;;;;;;4214272;28;20171;-91
2022/09/26 03:24:16;;;;;;;7.63;1.70;;;12.10;99.90;;;;;;4208184;22;20245;-89
2022/09/26 03:26:23;;;;;;;10.02;2.20;;;12.10;99.90;;;;;;4197621;28;20257;-89
2022/09/26 03:28:28;;;;;;;7.13;1.70;;;12.10;99.90;;;;;;4181071;28;20704;-89
2022/09/26 03:30:29;;;;;;;7.25;1.80;;;12.20;99.90;;;;;;4197645;28;20171;-89
2022/09/26 03:32:48;;;;;;;8.40;1.80;;;12.20;99.90;;;;;;4181312;28;20241;-88
2022/09/26 03:34:50;;;;;;;5.97;1.73;;;12.10;99.90;;;;;;4197507;28;20179;-89
2022/09/26 03:36:51;;;;;;;7.82;1.85;;;12.10;99.90;;;;;;4164405;28;20168;-89
2022/09/26 03:38:51;;;;;;;6.82;1.85;;;12.10;99.90;;;;;;4164336;28;20188;-88
2022/09/26 03:41:13;;;;;;;4.63;1.60;;;12.10;99.90;;;;;;4183349;28;20245;-89
2022/09/26 03:43:36;;;;;;;10.38;1.80;;;12.10;99.90;;;;;;4180629;28;20229;-88
2022/09/26 03:45:37;;;;;;;5.03;1.70;;;12.20;99.90;;;;;;4164176;28;20560;-89
2022/09/26 03:47:53;;;;;;;6.32;1.65;;;12.30;99.90;;;;;;4165297;28;20711;-88
2022/09/26 03:49:55;;;;;;;5.43;1.70;;;12.20;99.90;;;;;;4164086;28;20224;-95
2022/09/26 03:51:56;;;;;;;7.22;1.88;;;12.20;99.90;;;;;;4164470;28;20210;-88
2022/09/26 03:53:58;;;;;;;5.30;1.88;;;12.20;99.90;;;;;;4180851;28;20230;-88
2022/09/26 03:56:14;;;;;;;10.73;1.80;;;12.20;99.90;;;;;;4164398;28;20168;-89
2022/09/26 03:58:15;;;;;;;4.03;2.00;;;12.20;99.90;;;;;;4164641;28;20168;-88
2022/09/26 04:00:16;;;;;;;8.38;1.83;;;12.20;99.90;;;;;;4181947;28;20230;-92
2022/09/26 04:02:18;;;;;;;7.50;2.30;;;12.20;99.90;;;;;;4183951;28;20175;-88
2022/09/26 04:04:23;;;;;;;5.32;1.85;;;12.20;99.90;;;;;;4167603;28;20248;-89
2022/09/26 04:06:23;;;;;;;6.32;1.98;;;12.30;99.90;;;;;;4183314;28;20187;-92
2022/09/26 04:08:25;;;;;;;9.38;2.30;;;12.20;99.90;;;;;;4166722;28;20211;-89
2022/09/26 04:10:26;;;;;;;8.02;1.92;;;12.10;99.90;;;;;;4167165;28;20858;-88
2022/09/26 04:12:27;;;;;;;10.27;2.13;;;12.10;99.90;;;;;;4167108;28;20176;-89
2022/09/26 04:14:28;;;;;;;14.25;2.05;;;12.20;99.90;;;;;;4183309;28;20175;-88
2022/09/26 04:16:32;;;;;;;10.63;2.05;;;12.30;99.90;;;;;;4167168;28;20180;-89
2022/09/26 04:18:41;;;;;;;7.18;2.20;;;12.20;99.90;;;;;;4167524;28;20194;-89
2022/09/26 04:20:42;;;;;;;8.27;2.03;;;12.20;99.90;;;;;;4166803;28;20216;-90
2022/09/26 04:22:44;;;;;;;7.30;1.90;;;12.20;99.90;;;;;;4184519;28;20175;-88
2022/09/26 04:24:45;;;;;;;5.40;1.88;;;12.30;99.90;;;;;;4175102;28;20167;-90
2022/09/26 04:26:47;;;;;;;5.65;1.80;;;12.30;99.90;;;;;;4171527;28;20230;-92
2022/09/26 04:28:50;;;;;;;6.30;2.03;;;12.30;99.90;;;;;;4167058;28;20189;-88
2022/09/26 04:30:56;;;;;;;5.53;1.73;;;12.20;99.90;;;;;;4183612;28;20171;-88
2022/09/26 04:32:57;;;;;;;5.93;1.63;;;12.30;99.90;;;;;;4183467;28;20640;-89
2022/09/26 04:35:17;;;;;;;4.63;1.55;;;12.30;99.90;;;;;;4183537;28;20689;-87
2022/09/26 04:37:19;;;;;;;9.30;1.70;;;12.20;99.90;;;;;;4199655;28;20257;-89
2022/09/26 04:39:20;;;;;;;5.68;1.63;;;12.10;99.90;;;;;;4166600;28;20188;-90
2022/09/26 04:41:21;;;;;;;7.18;1.90;;;12.10;99.90;;;;;;4166431;28;20267;-88
2022/09/26 04:43:24;;;;;;;8.68;1.92;;;12.20;99.90;;;;;;4166837;28;20652;-88
2022/09/26 04:45:25;;;;;;;6.65;1.65;;;12.30;99.90;;;;;;4166381;28;20177;-89
2022/09/26 04:47:26;;;;;;;4.07;1.50;;;12.20;99.90;;;;;;4166635;28;20692;-86
2022/09/26 04:49:46;;;;;;;6.28;2.08;;;12.20;99.90;;;;;;4183396;28;20612;-88
2022/09/26 04:51:47;;;;;;;8.07;1.63;;;12.30;99.90;;;;;;4199500;28;20258;-87
2022/09/26 04:53:49;;;;;;;4.35;1.83;;;12.20;99.90;;;;;;4166480;28;20636;-91
2022/09/26 04:55:53;;;;;;;8.15;1.48;;;12.10;99.90;;;;;;4166531;28;20230;-90
2022/09/26 04:57:54;;;;;;;4.32;1.40;;;12.00;99.90;;;;;;4166396;28;20168;-87
2022/09/26 04:59:55;;;;;;;6.43;1.58;;;12.00;99.90;;;;;;4166049;28;20236;-89
2022/09/26 05:01:56;;;;;;;6.10;1.42;;;12.20;99.90;;;;;;4182866;28;20176;-87
2022/09/26 05:04:09;;;;;;;4.60;1.50;;;12.20;99.90;;;;;;4182779;28;20268;-89
2022/09/26 05:06:11;;;;;;;7.13;1.30;;;12.20;99.90;;;;;;4166378;28;20599;-92
2022/09/26 05:08:13;;;;;;;4.82;1.35;;;12.20;99.90;;;;;;4182648;28;20199;-89
2022/09/26 05:10:14;;;;;;;4.38;1.25;;;12.30;99.90;;;;;;4166045;28;20649;-87
2022/09/26 05:12:23;;;;;;;5.55;1.10;;;12.20;99.90;;;;;;4182569;28;20179;-88
2022/09/26 05:14:25;;;;;;;4.85;1.35;;;12.20;99.90;;;;;;4182649;28;20251;-91
2022/09/26 05:16:26;;;;;;;4.75;1.20;;;12.10;99.90;;;;;;4166054;28;20176;-87
2022/09/26 05:18:28;;;;;;;9.85;1.50;;;12.20;99.90;;;;;;4165768;28;20611;-88
2022/09/26 05:20:30;;;;;;;4.43;1.50;;;12.30;99.90;;;;;;4182380;28;20195;-89
2022/09/26 05:22:34;;;;;;;4.75;1.20;;;12.40;99.90;;;;;;4182561;28;20206;-91
2022/09/26 05:26:55;;;;;;;7.05;1.55;;;12.20;99.90;;;;;;4199208;28;20175;-89
2022/09/26 05:29:03;;;;;;;7.40;1.48;;;12.20;99.90;;;;;;4182463;28;20253;-89
2022/09/26 05:31:10;;;;;;;3.65;1.38;;;12.20;99.90;;;;;;4183245;28;20178;-88
2022/09/26 05:33:12;;;;;;;6.25;1.27;;;12.20;99.90;;;;;;4182430;28;20675;-93
2022/09/26 05:35:13;;;;;;;5.93;1.33;;;12.20;99.90;;;;;;4165784;28;20252;-88
2022/09/26 05:37:15;;;;;;;6.45;1.48;;;12.30;99.90;;;;;;4165936;28;20564;-89
2022/09/26 05:41:36;;;;;;;5.47;1.40;;;12.40;99.90;;;;;;4198523;28;20233;-88
2022/09/26 05:43:37;;;;;;;5.15;1.33;;;12.30;99.90;;;;;;4165541;28;20533;-90
2022/09/26 05:45:41;;;;;;;2.97;1.10;;;12.30;99.90;;;;;;4166214;28;20636;-90
2022/09/26 05:47:47;;;;;;;6.53;1.70;;;12.40;99.90;;;;;;4165704;28;20168;-90
2022/09/26 05:49:47;;;;;;;6.88;1.38;;;12.40;99.90;;;;;;4181891;28;20225;-88
2022/09/26 05:51:52;;;;;;;4.72;1.23;;;12.30;99.90;;;;;;4165735;28;20164;-92
2022/09/26 05:53:52;;;;;;;8.73;1.60;;;12.40;99.90;;;;;;4165539;28;20176;-89
2022/09/26 05:55:56;;;;;;;6.35;1.40;;;12.50;99.90;;;;;;4165957;28;20228;-91
2022/09/26 05:58:33;;;;;;;2.22;1.25;;;12.50;99.90;;;;;;4169889;28;20186;-89
2022/09/26 06:01:12;;;;;;;6.05;1.40;;;12.50;99.90;;;;;;4181813;28;20295;-88
2022/09/26 06:03:14;;;;;;;6.45;1.35;;;12.70;99.90;;;;;;4198205;28;20254;-88
2022/09/26 06:05:26;;;;;;;4.85;1.45;;;12.70;99.90;;;;;;4181655;28;20175;-88
2022/09/26 06:08:00;;;;;;;6.00;1.40;;;12.70;99.90;;;;;;4171475;28;20175;-89
2022/09/26 06:10:12;;;;;;;3.90;1.25;;;12.70;99.90;;;;;;4196807;28;20187;-88
2022/09/26 06:12:27;;;;;;;2.58;1.10;;;12.60;99.90;;;;;;4167072;28;20219;-89
2022/09/26 06:14:28;;;;;;;6.47;1.35;;;12.70;99.90;;;;;;4181634;28;20175;-89
2022/09/26 06:16:29;;;;;;;4.05;1.40;;;12.80;99.90;;;;;;4165133;28;20180;-88
2022/09/26 06:18:30;;;;;;;6.38;1.30;;;12.80;99.90;;;;;;4164838;28;20200;-88
2022/09/26 06:20:32;;;;;;;8.73;1.60;;;12.60;99.90;;;;;;4164926;28;20204;-89
2022/09/26 06:22:40;;;;;;;3.95;1.30;;;12.50;99.90;;;;;;4164530;28;20176;-93
2022/09/26 06:24:41;;;;;;;7.35;1.33;;;12.50;99.90;;;;;;4164836;28;20179;-91
2022/09/26 06:26:44;;;;;;;9.27;1.70;;;12.60;99.90;;;;;;4181453;28;20226;-89
2022/09/26 06:28:46;;;;;;;7.63;2.13;;;12.60;99.90;;;;;;4197953;28;20219;-89
2022/09/26 06:30:46;;;;;;;4.32;1.80;;;12.60;99.90;;;;;;4198217;28;20171;-89
2022/09/26 06:32:57;;;;;;;6.97;1.90;;;12.60;99.90;;;;;;4181654;28;20635;-88
2022/09/26 06:35:12;;;;;;;6.15;1.63;;;12.50;99.90;;;;;;4166757;28;20172;-88
2022/09/26 06:37:21;;;;;;;6.28;2.45;;;12.40;99.90;;;;;;4165993;28;20199;-88
2022/09/26 06:39:22;;;;;;;8.45;3.83;;;12.50;99.90;;;;;;4197706;28;20762;-91
2022/09/26 06:41:25;;;;;;;9.07;3.08;;;12.50;99.90;;;;;;4164781;28;20222;-91
2022/09/26 06:43:26;;;;;;;10.85;3.90;;;12.60;99.90;;;;;;4181317;28;20505;-88
2022/09/26 06:45:47;;;;;;;15.25;3.60;;;12.60;99.90;;;;;;4181431;28;20639;-93
2022/09/26 06:48:02;;;;;;;6.85;1.70;;;12.60;99.90;;;;;;4195969;28;20174;-88
2022/09/26 06:50:09;;;;;;;3.45;1.17;;;12.60;99.90;;;;;;4165065;28;20203;-88
2022/09/26 06:52:12;;;;;;;8.93;2.25;;;12.60;99.90;;;;;;4165208;28;20160;-89
2022/09/26 06:54:14;;;;;;;8.45;1.30;;;12.50;99.90;;;;;;4164806;28;20176;-89
2022/09/26 06:56:15;;;;;;;5.50;1.50;;;12.60;99.90;;;;;;4191594;28;20174;-90
2022/09/26 06:58:16;;;;;;;4.85;1.25;;;12.60;99.90;;;;;;4169440;28;20172;-88
2022/09/26 07:00:29;;;;;;;5.68;1.30;;;12.60;99.90;;;;;;4166288;28;20242;-91
2022/09/26 07:02:37;;;;;;;4.93;1.13;;;12.70;99.90;;;;;;4181310;28;20213;-91
2022/09/26 07:04:56;;;;;;;4.18;1.17;;;12.70;99.90;;;;;;4167175;28;20176;-87
2022/09/26 07:07:06;;;;;;;5.00;1.05;;;12.80;99.90;;;;;;4181354;28;20171;-89
2022/09/26 07:09:07;;;;;;;12.73;1.70;;;12.80;99.90;;;;;;4180739;28;20262;-89
2022/09/26 07:11:19;;;;;;;5.57;1.15;;;12.90;99.90;;;;;;4165856;28;20183;-88
2022/09/26 07:13:20;;;;;;;7.45;1.48;;;13.00;99.90;;;;;;4180787;28;20246;-93
2022/09/26 07:15:21;;;;;;;6.95;1.25;;;12.90;99.90;;;;;;4164629;28;20202;-90
2022/09/26 07:17:22;;;;;;;4.80;1.23;;;13.00;99.90;;;;;;4164924;28;20199;-87
2022/09/26 07:19:55;;;;;;;4.45;1.55;;;13.10;99.90;;;;;;4148293;28;20199;-88
2022/09/26 07:22:14;;;;;;;9.40;1.40;;;12.90;99.90;;;;;;4195396;28;20236;-89
2022/09/26 07:24:19;;;;;;;6.15;1.00;;;12.80;99.90;;;;;;4196589;28;20206;-93
2022/09/26 07:26:20;;;;;;;7.82;1.40;;;13.00;99.90;;;;;;4164474;28;20187;-88
2022/09/26 07:28:21;;;;;;;5.25;1.58;;;13.00;99.90;;;;;;4164670;28;20188;-91
2022/09/26 07:30:24;;;;;;;4.38;1.40;;;13.00;99.90;;;;;;4164410;28;20203;-92
2022/09/26 07:32:35;;;;;;;7.65;2.63;;;13.00;99.90;;;;;;4196348;28;20266;-91
2022/09/26 07:34:54;;;;;;;6.57;1.25;;;13.00;99.90;;;;;;4167501;28;20209;-90
2022/09/26 07:36:56;;;;;;;6.95;1.40;;;13.00;99.90;;;;;;4185416;28;20202;-87
2022/09/26 07:38:57;;;;;;;4.82;1.33;;;13.10;99.90;;;;;;4169132;28;20274;-90
2022/09/26 07:40:59;;;;;;;5.03;1.25;;;13.10;99.90;;;;;;4184319;28;20206;-87
2022/09/26 07:43:01;;;;;;;10.77;4.25;;;13.20;99.90;;;;;;4167421;28;20242;-88
2022/09/26 07:45:01;;;;;;;7.38;1.30;;;13.20;99.90;;;;;;4200467;28;20622;-94
2022/09/26 07:52:06;;;;;;;7.95;1.40;;;13.50;99.90;;;;;;4183878;28;20163;-92
2022/09/26 07:54:27;;;;;;;4.75;1.17;;;13.60;99.90;;;;;;4163497;28;20644;-92
2022/09/26 07:56:48;;;;;;;11.82;1.58;;;13.80;99.90;;;;;;4174144;28;20662;-92
2022/09/26 07:58:55;;;;;;;8.88;1.65;;;13.80;99.90;;;;;;4199720;28;20217;-95
2022/09/26 08:01:19;;;;;;;7.40;1.65;;;13.90;99.90;;;;;;4170190;28;20302;-91
2022/09/26 08:03:49;;;;;;;4.35;0.98;;;13.80;99.90;;;;;;4175025;28;20266;-88
2022/09/26 08:06:01;;;;;;;8.85;1.55;;;13.80;99.90;;;;;;4198465;28;20554;-88
2022/09/26 08:08:03;;;;;;;12.88;4.35;;;13.90;99.90;;;;;;4167141;28;20251;-91
2022/09/26 08:10:23;;;;;;;23.00;6.60;;;13.70;99.90;;;;;;4183862;28;20198;-95
2022/09/26 08:12:42;;;;;;;28.85;10.07;;;13.60;99.90;;;;;;4197763;28;20624;-88
2022/09/26 08:14:54;;;;;;;11.15;2.95;;;13.70;99.90;;;;;;4168430;28;20196;-87
2022/09/26 08:17:16;;;;;;;5.35;0.98;;;13.70;99.90;;;;;;4183373;28;20664;-87
2022/09/26 08:19:16;;;;;;;4.88;1.25;;;13.60;99.90;;;;;;4199873;28;20230;-87
2022/09/26 08:21:19;;;;;;;3.03;1.08;;;13.60;99.90;;;;;;4183530;28;20199;-95
2022/09/26 08:23:20;;;;;;;5.93;1.40;;;13.50;99.90;;;;;;4166787;28;20564;-89
2022/09/26 08:25:39;;;;;;;9.60;2.10;;;13.60;99.90;;;;;;4169323;28;20660;-88
2022/09/26 08:27:59;;;;;;;9.85;1.50;;;13.50;99.90;;;;;;4169343;28;20238;-87
2022/09/26 08:30:01;;;;;;;6.15;1.17;;;13.30;99.90;;;;;;4183475;28;20199;-88
2022/09/26 08:32:03;;;;;;;7.35;1.58;;;13.40;99.90;;;;;;4183705;28;20171;-92
2022/09/26 08:34:06;;;;;;;7.18;1.05;;;13.30;99.90;;;;;;4166979;28;20263;-88
2022/09/26 08:36:10;;;;;;;5.55;1.02;;;13.30;99.90;;;;;;4199785;28;20163;-87
2022/09/26 08:38:29;;;;;;;5.65;1.30;;;13.40;99.90;;;;;;4198182;28;20233;-87
2022/09/26 08:40:48;;;;;;;8.93;1.58;;;13.40;99.90;;;;;;4197443;28;20232;-93
2022/09/26 08:43:44;;;;;;;3.63;1.23;;;13.40;99.90;;;;;;4186417;28;20270;-87
2022/09/26 08:46:35;;;;;;;9.27;1.80;;;13.50;99.90;;;;;;4160294;28;20180;-87
2022/09/26 08:49:14;;;;;;;5.53;1.35;;;13.70;99.90;;;;;;4182699;28;20365;-87
2022/09/26 08:51:30;;;;;;;6.25;1.65;;;13.70;99.90;;;;;;4182835;28;20176;-87
2022/09/26 08:53:44;;;;;;;4.82;1.45;;;13.70;99.90;;;;;;4183003;28;20687;-88
2022/09/26 08:55:47;;;;;;;11.27;1.33;;;13.60;99.90;;;;;;4199139;28;20167;-87
2022/09/26 08:57:57;;;;;;;7.38;1.27;;;13.60;99.90;;;;;;4182552;28;20171;-86
2022/09/26 08:59:57;;;;;;;8.25;1.25;;;13.70;99.90;;;;;;4199214;28;20187;-87
2022/09/26 09:02:04;;;;;;;7.70;1.70;;;13.70;99.90;;;;;;4182638;28;20205;-91
2022/09/26 09:04:22;;;;;;;6.70;1.40;;;13.70;99.90;;;;;;4167361;28;20263;-87
2022/09/26 09:06:26;;;;;;;6.20;1.50;;;13.70;99.90;;;;;;4199101;28;20530;-88
2022/09/26 09:08:49;;;;;;;4.95;1.30;;;13.80;99.90;;;;;;4198889;28;20175;-89
2022/09/26 09:10:55;;;;;;;8.25;1.48;;;13.80;99.90;;;;;;4198704;28;20210;-89
2022/09/26 09:13:21;;;;;;;14.07;3.22;;;13.80;99.90;;;;;;4182667;28;20175;-87
2022/09/26 09:16:06;;;;;;;12.88;5.68;;;13.60;99.90;;;;;;4169700;28;20184;-87
2022/09/26 09:18:49;;;;;;;8.80;1.83;;;13.50;99.90;;;;;;4182409;28;20675;-92
2022/09/26 09:21:53;;;;;;;7.15;2.22;;;13.60;99.90;;;;;;4175708;28;20219;-87
2022/09/26 09:24:09;;;;;;;5.38;1.30;;;13.60;99.90;;;;;;4206492;22;20302;-88
2022/09/26 09:26:20;;;;;;;7.82;1.30;;;13.60;99.90;;;;;;4182532;28;20682;-90
2022/09/26 09:28:45;;;;;;;4.28;1.25;;;13.60;99.90;;;;;;4166218;28;20203;-88
2022/09/26 09:31:01;;;;;;;8.73;1.55;;;13.70;99.90;;;;;;4166059;28;20172;-87
2022/09/26 09:33:17;;;;;;;10.55;1.70;;;13.60;99.90;;;;;;4165944;28;20199;-90
2022/09/26 09:36:02;;;;;;;8.90;1.63;;;13.40;99.90;;;;;;4165968;28;20242;-89
2022/09/26 09:38:18;;;;;;;4.55;1.27;;;13.30;99.90;;;;;;4161647;28;20631;-89
2022/09/26 09:40:41;;;;;;;5.70;1.20;;;13.40;99.90;;;;;;4165385;28;20219;-88
2022/09/26 09:42:48;;;;;;;4.88;1.20;;;13.20;99.90;;;;;;4165457;28;20215;-87
2022/09/26 09:45:06;;;;;;;9.48;1.55;;;13.10;99.90;;;;;;4165528;28;20242;-88
2022/09/26 09:47:14;;;;;;;5.43;1.35;;;13.10;99.90;;;;;;4165658;28;20180;-88
2022/09/26 09:49:21;;;;;;;6.13;1.58;;;13.20;99.90;;;;;;4148983;28;20772;-88
2022/09/26 09:51:22;;;;;;;8.38;2.00;;;13.30;99.90;;;;;;4149320;28;20229;-88
2022/09/26 09:53:36;;;;;;;7.97;1.80;;;13.40;99.90;;;;;;4165257;28;20286;-88
2022/09/26 09:55:45;;;;;;;6.82;1.48;;;13.30;99.90;;;;;;4165410;28;20214;-89
2022/09/26 09:58:06;;;;;;;6.88;1.52;;;13.40;99.90;;;;;;4164714;28;20222;-88
2022/09/26 10:00:17;;;;;;;5.28;1.35;;;13.40;99.90;;;;;;4165394;28;20195;-88
2022/09/26 10:02:46;;;;;;;3.65;1.33;;;13.60;99.90;;;;;;4165441;28;20176;-88
2022/09/26 10:05:17;;;;;;;5.30;1.10;;;13.60;99.90;;;;;;4181156;28;20542;-95
2022/09/26 10:07:18;;;;;;;8.23;1.67;;;13.50;99.90;;;;;;4165619;28;20184;-87
2022/09/26 10:09:42;;;;;;;6.38;1.38;;;13.50;99.90;;;;;;4165368;28;20200;-86
2022/09/26 10:12:15;;;;;;;4.78;1.40;;;13.60;99.90;;;;;;4179783;28;20202;-87
2022/09/26 10:15:11;;;;;;;14.63;1.70;;;13.60;99.90;;;;;;4166773;28;20267;-96
2022/09/26 10:17:30;;;;;;;9.38;1.70;;;13.40;99.90;;;;;;4179589;28;20234;-89
2022/09/26 10:19:47;;;;;;;5.65;1.33;;;13.50;99.90;;;;;;4165150;28;20238;-87
2022/09/26 10:21:49;;;;;;;5.13;1.75;;;13.40;99.90;;;;;;4148676;28;20208;-89
2022/09/26 10:23:51;;;;;;;8.50;1.92;;;13.50;99.90;;;;;;4148776;28;20400;-90
2022/09/26 10:26:33;;;;;;;5.82;1.42;;;13.40;99.90;;;;;;4151933;28;20176;-94
2022/09/26 10:28:54;;;;;;;7.30;1.60;;;13.30;99.90;;;;;;4164747;28;20172;-89
2022/09/26 10:31:07;;;;;;;6.50;1.58;;;13.40;99.90;;;;;;4148728;28;20176;-89
2022/09/26 10:33:29;;;;;;;8.48;1.63;;;13.10;99.90;;;;;;4150030;28;20169;-89
2022/09/26 10:35:44;;;;;;;9.38;1.65;;;13.20;99.90;;;;;;4150406;28;20173;-90
2022/09/26 10:38:02;;;;;;;11.35;1.80;;;13.20;99.90;;;;;;4165187;28;20172;-89
2022/09/26 10:42:46;;;;;;;6.53;1.60;;;13.40;99.90;;;;;;4165048;28;20663;-91
2022/09/26 10:44:49;;;;;;;6.90;1.88;;;13.20;99.90;;;;;;4148521;28;20171;-89
2022/09/26 10:46:59;;;;;;;22.85;7.22;;;13.20;99.90;;;;;;4164955;28;20176;-92
2022/09/26 10:49:36;;;;;;;23.75;7.22;;;13.30;99.90;;;;;;4147753;28;20204;-91
2022/09/26 10:52:22;;;;;;;13.18;4.60;;;13.30;99.90;;;;;;4178040;28;20176;-91
2022/09/26 10:54:33;;;;;;;6.78;2.22;;;13.40;99.90;;;;;;4148463;28;20194;-92
2022/09/26 10:56:42;;;;;;;9.13;2.35;;;13.30;99.90;;;;;;4148372;28;20161;-91
2022/09/26 10:58:45;;;;;;;8.43;2.58;;;13.30;99.90;;;;;;4148494;28;20182;-94
2022/09/26 11:00:51;;;;;;;4.78;2.30;;;13.30;99.90;;;;;;4148361;28;20212;-89
2022/09/26 11:02:57;;;;;;;5.93;1.75;;;13.50;99.90;;;;;;4149065;28;20207;-93
2022/09/26 11:07:46;;;;;;;5.75;1.88;;;13.60;99.90;;;;;;4165634;28;20524;-93
2022/09/26 11:10:09;;;;;;;7.25;1.65;;;13.60;99.90;;;;;;4181682;28;20210;-92
2022/09/26 11:12:28;;;;;;;6.43;2.00;;;13.60;99.90;;;;;;4167855;28;20167;-94
2022/09/26 11:14:33;;;;;;;6.25;2.05;;;13.60;99.90;;;;;;4167927;28;20620;-92
2022/09/26 11:16:52;;;;;;;9.27;2.05;;;13.60;99.90;;;;;;4152712;28;20184;-92
2022/09/26 11:19:25;;;;;;;7.07;2.05;;;13.50;99.90;;;;;;4151336;28;20603;-92
2022/09/26 11:22:03;;;;;;;9.07;1.98;;;13.60;99.90;;;;;;4151559;28;20303;-90
2022/09/26 11:24:13;;;;;;;5.72;1.80;;;13.60;99.90;;;;;;4151641;28;20184;-90
2022/09/26 11:26:24;;;;;;;5.80;1.70;;;13.60;99.90;;;;;;4184734;28;20527;-92
2022/09/26 11:28:54;;;;;;;6.03;1.60;;;13.70;99.90;;;;;;4151570;28;20207;-91
2022/09/26 11:31:21;;;;;;;4.38;1.48;;;13.70;99.90;;;;;;4148208;28;20185;-93
2022/09/26 11:33:29;;;;;;;3.45;1.30;;;13.60;99.90;;;;;;4152413;28;20246;-94
2022/09/26 11:36:03;;;;;;;3.03;1.52;;;13.60;99.90;;;;;;4157663;28;20176;-92